Time;durP1;ratioP1;P1;durP2;ratioP2;P2;SDS_P1;SDS_P2;PMS_P1;PMS_P2;Temp;Humidity;BMP_temperature;BMP_pressure;BME280_temperature;BME280_humidity;BME280_pressure;Samples;Min_cycle;Max_cycle;Signal;HPM_P1;HPM_P2
2022/05/22 00:00:13;;;;;;;7.68;6.45;;;13.00;93.20;;;;;;4161317;28;20054;-77
2022/05/22 00:02:15;;;;;;;9.65;7.60;;;12.90;93.80;;;;;;4168572;28;20111;-77
2022/05/22 00:04:17;;;;;;;8.52;5.63;;;12.80;93.90;;;;;;4172239;28;20058;-77
2022/05/22 00:06:20;;;;;;;7.53;6.00;;;12.80;94.00;;;;;;4167324;28;20064;-76
2022/05/22 00:08:21;;;;;;;8.15;5.53;;;12.80;94.40;;;;;;4160680;28;20948;-76
2022/05/22 00:10:23;;;;;;;7.93;5.20;;;12.80;94.10;;;;;;4176673;28;20056;-76
2022/05/22 00:12:25;;;;;;;9.25;6.55;;;12.80;94.10;;;;;;4169974;28;20158;-76
2022/05/22 00:14:27;;;;;;;10.50;7.53;;;12.80;94.20;;;;;;4159021;28;20093;-77
2022/05/22 00:16:40;;;;;;;9.00;6.72;;;12.80;94.10;;;;;;4168773;28;20060;-76
2022/05/22 00:18:42;;;;;;;6.85;5.45;;;12.80;94.00;;;;;;4167098;28;20061;-77
2022/05/22 00:20:44;;;;;;;7.25;5.68;;;12.80;93.90;;;;;;4178198;28;20108;-76
2022/05/22 00:22:45;;;;;;;5.95;5.35;;;12.80;93.90;;;;;;4168894;28;20861;-77
2022/05/22 00:24:47;;;;;;;5.28;4.60;;;12.80;94.00;;;;;;4169169;28;20058;-76
2022/05/22 00:26:49;;;;;;;5.00;4.50;;;12.80;94.10;;;;;;4168187;28;20161;-77
2022/05/22 00:28:51;;;;;;;6.25;4.22;;;12.70;94.20;;;;;;4171210;28;20145;-77
2022/05/22 00:30:53;;;;;;;6.70;4.43;;;12.70;94.30;;;;;;4177354;28;20054;-77
2022/05/22 00:32:54;;;;;;;4.10;3.70;;;12.60;94.60;;;;;;4178200;28;20063;-77
2022/05/22 00:34:56;;;;;;;5.53;2.85;;;12.50;94.80;;;;;;4170499;28;20078;-76
2022/05/22 00:36:58;;;;;;;4.68;2.72;;;12.40;95.40;;;;;;4172114;28;20147;-77
2022/05/22 00:38:59;;;;;;;5.72;3.13;;;12.20;96.20;;;;;;4167569;28;20604;-77
2022/05/22 00:41:02;;;;;;;4.75;3.15;;;12.10;96.50;;;;;;4166200;28;20176;-76
2022/05/22 00:43:04;;;;;;;2.67;2.47;;;12.10;96.80;;;;;;4161712;28;20884;-76
2022/05/22 00:45:06;;;;;;;2.60;2.13;;;12.00;97.00;;;;;;4169281;28;20879;-77
2022/05/22 00:47:08;;;;;;;5.90;2.53;;;12.00;97.20;;;;;;4166641;28;20068;-77
2022/05/22 00:49:29;;;;;;;3.40;2.50;;;12.10;96.90;;;;;;4179169;28;20053;-76
2022/05/22 00:51:52;;;;;;;3.25;1.83;;;12.10;96.70;;;;;;4155589;28;20100;-77
2022/05/22 00:54:22;;;;;;;11.10;1.60;;;12.10;96.50;;;;;;4170466;28;20054;-76
2022/05/22 00:56:33;;;;;;;3.67;2.00;;;12.20;96.20;;;;;;4151997;28;20074;-77
2022/05/22 00:58:35;;;;;;;;;;;12.10;96.40;;;;;;4176086;28;20444;-77
2022/05/22 01:00:37;;;;;;;1.88;1.77;;;12.10;96.90;;;;;;4176293;28;19936;-77
2022/05/22 01:04:59;;;;;;;3.25;2.45;;;12.10;96.40;;;;;;4201461;28;20053;-76
2022/05/22 01:07:05;;;;;;;3.42;2.85;;;12.10;96.40;;;;;;4182909;28;20940;-76
2022/05/22 01:09:08;;;;;;;4.00;3.60;;;12.10;96.50;;;;;;4170164;28;20819;-77
2022/05/22 01:11:14;;;;;;;7.50;5.15;;;12.10;96.30;;;;;;4162922;28;20065;-77
2022/05/22 01:13:19;;;;;;;5.38;4.05;;;12.10;96.20;;;;;;4183457;28;20787;-77
2022/05/22 01:15:21;;;;;;;4.30;3.83;;;12.10;96.20;;;;;;4167989;28;20050;-77
2022/05/22 01:17:23;;;;;;;6.50;4.63;;;12.10;96.20;;;;;;4168500;28;20053;-76
2022/05/22 01:19:24;;;;;;;5.18;4.38;;;12.10;96.40;;;;;;4170818;28;20097;-76
2022/05/22 01:21:30;;;;;;;7.07;4.60;;;12.00;96.50;;;;;;4173973;28;20060;-77
2022/05/22 01:23:31;;;;;;;5.28;3.33;;;11.90;97.10;;;;;;4171598;28;20065;-76
2022/05/22 01:25:33;;;;;;;4.82;4.22;;;11.70;97.80;;;;;;4173889;28;20061;-77
2022/05/22 01:27:36;;;;;;;6.13;3.60;;;11.70;98.20;;;;;;4167258;28;20829;-78
2022/05/22 01:29:38;;;;;;;4.03;3.65;;;11.60;98.50;;;;;;4166245;28;20147;-76
2022/05/22 01:31:40;;;;;;;4.22;3.45;;;11.60;98.60;;;;;;4161396;28;20057;-76
2022/05/22 01:33:42;;;;;;;3.00;2.63;;;11.70;98.80;;;;;;4167698;28;20058;-77
2022/05/22 01:35:43;;;;;;;3.35;3.05;;;11.70;98.70;;;;;;4173021;28;20062;-77
2022/05/22 01:37:48;;;;;;;5.07;2.22;;;11.70;98.70;;;;;;4161331;28;20105;-77
2022/05/22 01:39:49;;;;;;;2.80;1.85;;;11.70;98.60;;;;;;4177337;28;20088;-77
2022/05/22 01:41:51;;;;;;;1.95;1.83;;;11.70;98.60;;;;;;4168416;28;20054;-77
2022/05/22 01:43:53;;;;;;;2.70;2.03;;;11.70;99.00;;;;;;4171289;28;20056;-77
2022/05/22 01:45:55;;;;;;;2.40;2.13;;;11.70;99.10;;;;;;4176472;28;20624;-77
2022/05/22 01:47:57;;;;;;;3.42;1.90;;;11.60;99.20;;;;;;4167317;28;20152;-77
2022/05/22 01:49:58;;;;;;;3.13;2.40;;;11.70;99.00;;;;;;4166389;28;20057;-77
2022/05/22 01:52:00;;;;;;;4.93;2.88;;;11.70;98.70;;;;;;4167160;28;20058;-76
2022/05/22 01:54:03;;;;;;;2.65;1.92;;;11.70;98.60;;;;;;4166542;28;20155;-76
2022/05/22 01:56:05;;;;;;;2.78;2.00;;;11.70;98.70;;;;;;4170450;28;21133;-76
2022/05/22 01:58:07;;;;;;;2.60;1.90;;;11.60;98.70;;;;;;4164942;28;20057;-76
2022/05/22 02:00:12;;;;;;;2.80;2.50;;;11.60;99.00;;;;;;4166338;28;20076;-76
2022/05/22 02:02:14;;;;;;;1.95;1.85;;;11.50;99.30;;;;;;4168601;28;20045;-76
2022/05/22 02:04:16;;;;;;;2.40;2.05;;;11.60;99.30;;;;;;4169862;28;20088;-77
2022/05/22 02:06:18;;;;;;;2.10;1.88;;;11.60;99.30;;;;;;4181136;28;20057;-76
2022/05/22 02:08:20;;;;;;;7.90;2.50;;;11.50;99.60;;;;;;4170071;28;20184;-77
2022/05/22 02:10:22;;;;;;;3.13;1.98;;;11.50;99.80;;;;;;4183242;28;20089;-76
2022/05/22 02:12:24;;;;;;;4.43;1.67;;;11.50;99.90;;;;;;4158767;28;20162;-76
2022/05/22 02:14:26;;;;;;;2.65;1.95;;;11.50;99.80;;;;;;4171436;28;20089;-76
2022/05/22 02:16:27;;;;;;;2.97;1.90;;;11.50;99.70;;;;;;4157215;28;21240;-76
2022/05/22 02:18:29;;;;;;;4.32;1.73;;;11.60;99.60;;;;;;4166211;28;20058;-76
2022/05/22 02:20:31;;;;;;;3.38;1.67;;;11.50;99.70;;;;;;4166412;28;20156;-76
2022/05/22 02:22:32;;;;;;;2.05;1.63;;;11.60;99.70;;;;;;4171039;28;20136;-76
2022/05/22 02:24:34;;;;;;;2.55;1.60;;;11.60;99.70;;;;;;4175310;28;20908;-76
2022/05/22 02:26:36;;;;;;;2.20;1.83;;;11.60;99.60;;;;;;4164749;28;20058;-76
2022/05/22 02:28:39;;;;;;;2.85;1.90;;;11.50;99.80;;;;;;4165797;28;20061;-76
2022/05/22 02:30:45;;;;;;;2.13;1.48;;;11.50;99.90;;;;;;4161685;28;20046;-76
2022/05/22 02:32:47;;;;;;;2.08;1.60;;;11.50;99.80;;;;;;4180345;28;20160;-77
2022/05/22 02:34:49;;;;;;;1.92;1.70;;;11.50;99.70;;;;;;4159526;28;20059;-76
2022/05/22 02:36:51;;;;;;;2.33;1.85;;;11.60;99.60;;;;;;4161922;28;20068;-77
2022/05/22 02:38:52;;;;;;;2.47;1.50;;;11.70;99.30;;;;;;4168032;28;20062;-76
2022/05/22 02:40:54;;;;;;;1.70;1.40;;;11.70;99.10;;;;;;4168801;28;20097;-77
2022/05/22 02:42:56;;;;;;;1.63;1.30;;;11.70;98.90;;;;;;4171734;28;20911;-76
2022/05/22 02:44:58;;;;;;;2.60;1.40;;;11.70;99.10;;;;;;4154069;28;20061;-77
2022/05/22 02:47:00;;;;;;;2.67;1.98;;;11.70;99.20;;;;;;4178915;28;20054;-76
2022/05/22 02:49:02;;;;;;;3.30;2.15;;;11.70;99.60;;;;;;4172544;28;20058;-77
2022/05/22 02:51:04;;;;;;;3.08;1.60;;;11.60;99.60;;;;;;4182688;28;20061;-76
2022/05/22 02:53:07;;;;;;;1.75;1.52;;;11.60;99.90;;;;;;4170253;28;20062;-76
2022/05/22 02:55:09;;;;;;;3.10;1.85;;;11.60;99.90;;;;;;4167463;28;20057;-77
2022/05/22 02:57:11;;;;;;;2.47;2.03;;;11.60;99.90;;;;;;4175544;28;20669;-77
2022/05/22 02:59:13;;;;;;;1.95;1.80;;;11.60;99.90;;;;;;4182158;28;20105;-76
2022/05/22 03:01:15;;;;;;;2.42;1.92;;;11.60;99.90;;;;;;4166706;28;20068;-76
2022/05/22 03:03:16;;;;;;;3.38;2.10;;;11.60;99.90;;;;;;4162004;28;20909;-77
2022/05/22 03:05:19;;;;;;;2.03;1.63;;;11.50;99.90;;;;;;4165973;28;20054;-76
2022/05/22 03:07:20;;;;;;;2.67;1.67;;;11.50;99.90;;;;;;4165549;28;20167;-76
2022/05/22 03:09:22;;;;;;;10.80;2.15;;;11.50;99.90;;;;;;4152259;28;20883;-76
2022/05/22 03:11:24;;;;;;;2.40;2.20;;;11.40;99.90;;;;;;4175534;28;20085;-76
2022/05/22 03:13:26;;;;;;;1.35;1.25;;;11.40;99.90;;;;;;4166693;28;20062;-76
2022/05/22 03:15:28;;;;;;;2.28;1.50;;;11.50;99.90;;;;;;4169563;28;20060;-76
2022/05/22 03:17:30;;;;;;;2.38;1.65;;;11.50;99.90;;;;;;4163687;28;20046;-76
2022/05/22 03:19:32;;;;;;;1.67;1.58;;;11.40;99.90;;;;;;4162951;28;20100;-76
2022/05/22 03:21:33;;;;;;;1.85;1.75;;;11.40;99.90;;;;;;4164035;28;20085;-76
2022/05/22 03:23:37;;;;;;;3.20;1.48;;;11.40;99.90;;;;;;4165312;28;20051;-76
2022/05/22 03:25:39;;;;;;;2.10;1.67;;;11.40;99.90;;;;;;4158190;28;20058;-76
2022/05/22 03:27:41;;;;;;;1.70;1.60;;;11.30;99.90;;;;;;4164188;28;21270;-76
2022/05/22 03:29:44;;;;;;;2.00;1.70;;;11.20;99.90;;;;;;4154543;28;20059;-76
2022/05/22 03:31:45;;;;;;;2.08;1.50;;;11.10;99.90;;;;;;4161042;28;20058;-76
2022/05/22 03:33:47;;;;;;;2.28;2.08;;;11.10;99.90;;;;;;4165130;28;20256;-76
2022/05/22 03:35:49;;;;;;;1.73;1.63;;;11.10;99.90;;;;;;4171293;28;20804;-76
2022/05/22 03:37:50;;;;;;;6.50;1.98;;;11.00;99.90;;;;;;4166897;28;20058;-76
2022/05/22 03:39:53;;;;;;;1.98;1.70;;;11.10;99.90;;;;;;4161846;28;20085;-76
2022/05/22 03:41:54;;;;;;;2.30;1.27;;;11.00;99.90;;;;;;4166381;28;20054;-76
2022/05/22 03:43:56;;;;;;;2.80;1.52;;;11.00;99.90;;;;;;4163433;28;20840;-76
2022/05/22 03:45:58;;;;;;;1.35;1.25;;;11.00;99.90;;;;;;4168824;28;21140;-76
2022/05/22 03:48:00;;;;;;;2.35;1.55;;;11.00;99.90;;;;;;4166535;28;20061;-76
2022/05/22 03:50:04;;;;;;;2.88;1.90;;;11.00;99.90;;;;;;4167744;28;20060;-76
2022/05/22 03:52:07;;;;;;;3.83;1.52;;;11.00;99.90;;;;;;4160661;28;20077;-75
2022/05/22 03:54:10;;;;;;;3.63;1.55;;;11.10;99.90;;;;;;4170157;28;20062;-75
2022/05/22 03:56:14;;;;;;;1.58;1.40;;;11.20;99.90;;;;;;4172375;28;20065;-75
2022/05/22 03:58:17;;;;;;;4.95;1.50;;;11.20;99.90;;;;;;4170585;28;20084;-76
2022/05/22 04:00:21;;;;;;;2.75;1.63;;;11.30;99.90;;;;;;4158247;28;20903;-76
2022/05/22 04:02:23;;;;;;;2.10;1.48;;;11.30;99.90;;;;;;4167886;28;20651;-76
2022/05/22 04:04:25;;;;;;;2.53;1.30;;;11.30;99.90;;;;;;4172922;28;20053;-76
2022/05/22 04:06:26;;;;;;;1.77;1.67;;;11.40;99.90;;;;;;4171623;28;20864;-76
2022/05/22 04:08:29;;;;;;;3.15;1.30;;;11.40;99.90;;;;;;4166545;28;20054;-76
2022/05/22 04:10:31;;;;;;;3.15;1.75;;;11.40;99.90;;;;;;4169504;28;20065;-75
2022/05/22 04:12:33;;;;;;;1.42;1.30;;;11.50;99.90;;;;;;4169699;28;20791;-77
2022/05/22 04:14:35;;;;;;;3.28;1.48;;;11.50;99.90;;;;;;4175233;28;20053;-76
2022/05/22 04:16:37;;;;;;;2.03;1.58;;;11.60;99.90;;;;;;4168570;28;20060;-76
2022/05/22 04:18:39;;;;;;;1.98;1.60;;;11.60;99.90;;;;;;4164482;28;20062;-76
2022/05/22 04:20:41;;;;;;;3.38;1.70;;;11.60;99.90;;;;;;4166815;28;20049;-76
2022/05/22 04:25:12;;;;;;;1.80;1.70;;;11.70;99.90;;;;;;4159160;28;20062;-76
2022/05/22 04:27:14;;;;;;;;;;;11.70;99.90;;;;;;4169475;28;20228;-76
2022/05/22 04:29:15;;;;;;;1.40;1.30;;;11.80;99.90;;;;;;4165181;28;19929;-76
2022/05/22 04:31:17;;;;;;;2.05;1.83;;;11.70;99.90;;;;;;4172711;28;20068;-76
2022/05/22 04:33:19;;;;;;;3.10;1.73;;;11.60;99.90;;;;;;4183374;28;20303;-76
2022/05/22 04:35:22;;;;;;;2.00;1.80;;;11.70;99.90;;;;;;4161730;28;20068;-76
2022/05/22 04:37:23;;;;;;;2.75;1.80;;;11.70;99.90;;;;;;4164302;28;20069;-76
2022/05/22 04:39:25;;;;;;;4.70;1.70;;;11.60;99.90;;;;;;4166567;28;20069;-76
2022/05/22 04:41:27;;;;;;;4.78;1.67;;;11.60;99.90;;;;;;4185595;28;20256;-76
2022/05/22 04:43:31;;;;;;;1.92;1.83;;;11.70;99.90;;;;;;4176697;28;20160;-76
2022/05/22 04:45:33;;;;;;;7.05;2.20;;;11.70;99.90;;;;;;4166539;28;20092;-76
2022/05/22 04:47:37;;;;;;;3.20;1.98;;;11.80;99.90;;;;;;4170285;28;20081;-76
2022/05/22 04:49:39;;;;;;;1.70;1.60;;;12.00;99.90;;;;;;4166836;28;20061;-76
2022/05/22 04:51:41;;;;;;;4.97;2.13;;;12.10;99.70;;;;;;4168974;28;20898;-76
2022/05/22 04:53:43;;;;;;;2.97;1.88;;;12.30;99.20;;;;;;4159443;28;20626;-76
2022/05/22 04:55:45;;;;;;;5.75;2.35;;;12.40;99.20;;;;;;4173326;28;20069;-77
2022/05/22 04:57:47;;;;;;;4.45;1.92;;;12.50;98.90;;;;;;4167306;28;20062;-76
2022/05/22 04:59:48;;;;;;;3.22;1.80;;;12.60;98.40;;;;;;4167783;28;20876;-76
2022/05/22 05:01:50;;;;;;;2.17;1.60;;;12.70;98.10;;;;;;4166311;28;20533;-76
2022/05/22 05:03:52;;;;;;;2.42;2.05;;;12.80;97.60;;;;;;4168503;28;20058;-76
2022/05/22 05:05:57;;;;;;;4.60;2.00;;;13.00;97.30;;;;;;4167377;28;20128;-77
2022/05/22 05:07:59;;;;;;;2.95;1.50;;;13.10;97.10;;;;;;4171623;28;20685;-76
2022/05/22 05:10:00;;;;;;;3.78;1.95;;;13.20;96.90;;;;;;4166935;28;20053;-76
2022/05/22 05:12:05;;;;;;;3.38;1.95;;;13.30;96.60;;;;;;4166660;28;20066;-77
2022/05/22 05:14:06;;;;;;;4.28;1.67;;;13.40;96.30;;;;;;4164729;28;20115;-77
2022/05/22 05:16:11;;;;;;;2.70;1.45;;;13.50;96.00;;;;;;4164184;28;20145;-77
2022/05/22 05:18:13;;;;;;;2.75;1.92;;;13.60;95.70;;;;;;4158628;28;20058;-77
2022/05/22 05:20:18;;;;;;;2.83;1.60;;;13.70;95.40;;;;;;4171057;28;20103;-77
2022/05/22 05:22:19;;;;;;;4.18;1.60;;;13.70;94.70;;;;;;4167015;28;20177;-76
2022/05/22 05:24:21;;;;;;;1.30;1.20;;;13.80;94.70;;;;;;4172931;28;20931;-77
2022/05/22 05:26:23;;;;;;;2.78;1.40;;;13.80;94.40;;;;;;4172054;28;20057;-77
2022/05/22 05:28:25;;;;;;;2.00;1.20;;;13.80;94.00;;;;;;4166107;28;20057;-77
2022/05/22 05:30:27;;;;;;;2.65;1.20;;;13.90;94.00;;;;;;4166505;28;20060;-76
2022/05/22 05:32:28;;;;;;;3.03;1.27;;;14.00;93.80;;;;;;4166471;28;20058;-77
2022/05/22 05:34:30;;;;;;;1.98;1.27;;;14.10;93.50;;;;;;4175259;28;20045;-77
2022/05/22 05:36:33;;;;;;;2.25;1.30;;;14.10;93.70;;;;;;4172448;28;20066;-77
2022/05/22 05:38:35;;;;;;;1.90;1.55;;;14.20;92.80;;;;;;4177578;28;20095;-77
2022/05/22 05:40:57;;;;;;;3.28;1.40;;;14.30;92.50;;;;;;4169688;28;20145;-77
2022/05/22 05:42:58;;;;;;;5.00;1.20;;;14.50;92.00;;;;;;4179809;28;20066;-78
2022/05/22 05:45:02;;;;;;;2.85;1.15;;;14.70;91.10;;;;;;4163015;28;20243;-77
2022/05/22 05:47:04;;;;;;;2.53;1.15;;;14.90;90.60;;;;;;4169639;28;20068;-76
2022/05/22 05:49:07;;;;;;;1.08;0.90;;;14.90;91.00;;;;;;4163223;28;20053;-76
2022/05/22 05:51:13;;;;;;;2.30;1.20;;;15.00;90.40;;;;;;4164825;28;20061;-76
2022/05/22 05:53:14;;;;;;;1.27;1.17;;;15.10;89.50;;;;;;4160015;28;20809;-76
2022/05/22 05:55:17;;;;;;;3.83;0.95;;;15.20;89.20;;;;;;4164493;28;20057;-77
2022/05/22 05:57:38;;;;;;;1.38;1.13;;;15.30;88.30;;;;;;4163124;28;20073;-77
2022/05/22 05:59:40;;;;;;;1.90;1.23;;;15.40;88.00;;;;;;4164846;28;20058;-77
2022/05/22 06:01:42;;;;;;;2.47;1.20;;;15.60;87.40;;;;;;4159606;28;20805;-77
2022/05/22 06:03:44;;;;;;;1.48;0.90;;;15.80;86.60;;;;;;4164824;28;20069;-77
2022/05/22 06:05:48;;;;;;;1.52;0.98;;;15.90;86.80;;;;;;4170273;28;20152;-77
2022/05/22 06:07:51;;;;;;;1.00;0.88;;;16.00;85.70;;;;;;4157923;28;20062;-77
2022/05/22 06:09:53;;;;;;;1.65;1.10;;;16.10;85.60;;;;;;4163635;28;20058;-77
2022/05/22 06:11:54;;;;;;;1.52;1.02;;;16.20;85.20;;;;;;4159530;28;20061;-78
2022/05/22 06:13:56;;;;;;;2.42;1.02;;;16.30;85.20;;;;;;4160669;28;20097;-77
2022/05/22 06:15:58;;;;;;;1.73;1.25;;;16.30;85.40;;;;;;4156545;28;20065;-78
2022/05/22 06:18:00;;;;;;;1.75;1.05;;;16.40;84.90;;;;;;4160147;28;20806;-77
2022/05/22 06:20:07;;;;;;;1.75;1.08;;;16.50;83.30;;;;;;4159580;28;20899;-78
2022/05/22 06:22:09;;;;;;;2.25;0.90;;;16.60;83.40;;;;;;4161820;28;20789;-78
2022/05/22 06:24:11;;;;;;;3.08;1.00;;;16.70;82.90;;;;;;4159426;28;20086;-77
2022/05/22 06:26:17;;;;;;;6.85;1.30;;;16.90;81.90;;;;;;4160996;28;20058;-77
2022/05/22 06:28:19;;;;;;;1.38;0.90;;;16.90;81.70;;;;;;4164413;28;20093;-77
2022/05/22 06:30:22;;;;;;;2.72;0.82;;;16.90;81.30;;;;;;4175273;28;20092;-77
2022/05/22 06:32:24;;;;;;;2.78;1.10;;;17.00;81.60;;;;;;4166159;28;20145;-77
2022/05/22 06:34:26;;;;;;;3.80;0.80;;;17.00;81.40;;;;;;4158296;28;20058;-78
2022/05/22 06:36:28;;;;;;;1.60;0.80;;;17.10;80.60;;;;;;4160637;28;20167;-77
2022/05/22 06:40:51;;;;;;;2.30;0.75;;;17.30;80.30;;;;;;4155218;28;20061;-78
2022/05/22 06:42:53;;;;;;;2.45;1.00;;;17.40;79.40;;;;;;4160800;28;20877;-77
2022/05/22 06:45:05;;;;;;;1.08;0.90;;;17.50;78.80;;;;;;4158100;28;20088;-78
2022/05/22 06:47:07;;;;;;;2.63;0.80;;;17.60;78.70;;;;;;4157570;28;20062;-76
2022/05/22 06:49:09;;;;;;;2.30;0.85;;;17.60;77.70;;;;;;4159928;28;20117;-76
2022/05/22 06:51:10;;;;;;;1.15;0.90;;;17.70;77.70;;;;;;4161394;28;20056;-77
2022/05/22 06:53:12;;;;;;;1.50;0.88;;;17.70;77.30;;;;;;4158610;28;20773;-76
2022/05/22 06:55:14;;;;;;;0.98;0.90;;;17.70;77.60;;;;;;4162185;28;20058;-76
2022/05/22 06:57:19;;;;;;;0.80;0.70;;;17.80;78.00;;;;;;4161218;28;20172;-76
2022/05/22 06:59:20;;;;;;;2.33;0.88;;;17.70;77.90;;;;;;4161202;28;20148;-76
2022/05/22 07:01:24;;;;;;;1.17;0.70;;;17.80;76.70;;;;;;4159622;28;20869;-76
2022/05/22 07:03:26;;;;;;;1.00;0.63;;;17.80;76.90;;;;;;4161692;28;20058;-76
2022/05/22 07:05:28;;;;;;;1.88;0.73;;;17.90;76.50;;;;;;4157035;28;20058;-77
2022/05/22 07:07:29;;;;;;;1.17;0.95;;;17.90;76.50;;;;;;4159333;28;20058;-76
2022/05/22 07:09:31;;;;;;;0.85;0.70;;;17.90;75.70;;;;;;4164383;28;20169;-76
2022/05/22 07:11:39;;;;;;;1.00;0.70;;;17.80;75.50;;;;;;4160534;28;20052;-77
2022/05/22 07:13:41;;;;;;;1.45;0.60;;;17.90;76.40;;;;;;4161663;28;20056;-76
2022/05/22 07:15:42;;;;;;;2.72;0.95;;;18.00;75.90;;;;;;4164403;28;20058;-76
2022/05/22 07:17:44;;;;;;;1.90;0.80;;;18.00;73.30;;;;;;4162643;28;20062;-75
2022/05/22 07:19:46;;;;;;;0.98;0.70;;;18.10;75.10;;;;;;4160175;28;20069;-75
2022/05/22 07:21:48;;;;;;;3.40;0.80;;;18.20;74.50;;;;;;4163715;28;20097;-76
2022/05/22 07:23:50;;;;;;;2.95;1.00;;;18.40;74.70;;;;;;4161871;28;20049;-76
2022/05/22 07:25:53;;;;;;;3.03;0.88;;;18.50;73.70;;;;;;4159732;28;20060;-77
2022/05/22 07:27:55;;;;;;;1.85;0.60;;;18.50;73.40;;;;;;4163454;28;20156;-76
2022/05/22 07:29:56;;;;;;;1.05;0.52;;;18.50;71.70;;;;;;4161339;28;20062;-75
2022/05/22 07:31:59;;;;;;;1.13;0.70;;;18.50;72.10;;;;;;4163587;28;20089;-76
2022/05/22 07:34:01;;;;;;;2.22;0.82;;;18.70;71.10;;;;;;4161328;28;20224;-77
2022/05/22 07:36:02;;;;;;;0.73;0.68;;;18.70;70.50;;;;;;4164077;28;20058;-75
2022/05/22 07:38:04;;;;;;;2.25;0.80;;;18.80;71.20;;;;;;4160511;28;20066;-75
2022/05/22 07:40:07;;;;;;;0.55;0.55;;;18.80;69.80;;;;;;4162464;28;20053;-75
2022/05/22 07:42:08;;;;;;;1.08;0.60;;;18.80;70.60;;;;;;4162053;28;20058;-76
2022/05/22 07:44:10;;;;;;;0.77;0.60;;;18.70;69.70;;;;;;4157732;28;20153;-76
2022/05/22 07:46:13;;;;;;;2.40;0.75;;;18.60;69.70;;;;;;4161912;28;20081;-75
2022/05/22 07:48:15;;;;;;;1.63;0.80;;;18.60;70.00;;;;;;4161750;28;20136;-75
2022/05/22 07:50:17;;;;;;;0.68;0.68;;;18.60;69.10;;;;;;4164374;28;20138;-76
2022/05/22 07:52:19;;;;;;;4.40;0.73;;;18.70;69.90;;;;;;4158887;28;20051;-75
2022/05/22 07:54:23;;;;;;;2.85;0.77;;;18.80;69.30;;;;;;4158420;28;20058;-75
2022/05/22 07:56:25;;;;;;;1.25;0.50;;;19.00;70.00;;;;;;4164159;28;20053;-75
2022/05/22 07:58:27;;;;;;;1.15;0.63;;;19.00;68.80;;;;;;4160583;28;20060;-75
2022/05/22 08:00:29;;;;;;;1.20;0.70;;;19.00;69.80;;;;;;4164546;28;20088;-75
2022/05/22 08:02:31;;;;;;;1.70;0.90;;;19.10;69.50;;;;;;4159140;28;20081;-75
2022/05/22 08:04:33;;;;;;;1.83;0.60;;;19.20;67.60;;;;;;4161463;28;20620;-75
2022/05/22 08:06:35;;;;;;;1.65;0.80;;;19.20;67.10;;;;;;4159160;28;20058;-75
2022/05/22 08:08:37;;;;;;;3.55;0.63;;;19.20;67.30;;;;;;4168804;28;20068;-76
2022/05/22 08:10:45;;;;;;;0.60;0.60;;;19.20;67.10;;;;;;4175578;28;20050;-75
2022/05/22 08:12:49;;;;;;;1.20;0.70;;;19.20;67.50;;;;;;4173553;28;20101;-75
2022/05/22 08:14:51;;;;;;;2.58;0.60;;;19.30;68.00;;;;;;4169048;28;20056;-75
2022/05/22 08:16:54;;;;;;;0.60;0.57;;;19.40;67.10;;;;;;4169070;28;20058;-75
2022/05/22 08:18:56;;;;;;;1.33;0.70;;;19.50;66.90;;;;;;4165382;28;20060;-75
2022/05/22 08:20:57;;;;;;;1.00;0.70;;;19.50;67.10;;;;;;4165360;28;20061;-74
2022/05/22 08:23:03;;;;;;;4.10;1.30;;;19.50;67.20;;;;;;4163245;28;20062;-75
2022/05/22 08:25:06;;;;;;;1.02;0.95;;;19.70;66.80;;;;;;4160845;28;20062;-75
2022/05/22 08:27:07;;;;;;;3.50;0.60;;;19.70;68.00;;;;;;4165233;28;20057;-75
2022/05/22 08:29:09;;;;;;;1.35;0.63;;;19.80;66.00;;;;;;4164303;28;20345;-75
2022/05/22 08:31:11;;;;;;;1.95;1.10;;;19.80;65.70;;;;;;4162058;28;20860;-74
2022/05/22 08:33:16;;;;;;;1.08;0.82;;;19.90;64.40;;;;;;4163116;28;20113;-75
2022/05/22 08:35:22;;;;;;;2.28;1.30;;;19.90;64.00;;;;;;4162688;28;20062;-74
2022/05/22 08:37:23;;;;;;;1.65;0.60;;;20.00;64.40;;;;;;4162629;28;20054;-74
2022/05/22 08:39:26;;;;;;;1.17;0.73;;;20.00;64.20;;;;;;4164747;28;20054;-74
2022/05/22 08:41:42;;;;;;;1.83;0.80;;;20.00;64.80;;;;;;4163636;28;20124;-75
2022/05/22 08:44:00;;;;;;;0.80;0.70;;;20.10;64.70;;;;;;4164087;28;20062;-75
2022/05/22 08:46:04;;;;;;;1.85;0.75;;;20.20;65.10;;;;;;4162412;28;20664;-75
2022/05/22 08:48:08;;;;;;;1.13;0.70;;;20.20;64.80;;;;;;4159918;28;20061;-74
2022/05/22 08:50:11;;;;;;;0.65;0.65;;;20.20;64.60;;;;;;4165989;28;20068;-75
2022/05/22 08:52:31;;;;;;;1.67;0.60;;;20.20;64.50;;;;;;4159721;28;20066;-75
2022/05/22 08:54:45;;;;;;;1.02;0.80;;;20.20;64.20;;;;;;4162275;28;20061;-75
2022/05/22 08:59:20;;;;;;;1.60;0.65;;;20.20;65.20;;;;;;4163482;28;21336;-75
2022/05/22 09:01:44;;;;;;;0.65;0.50;;;20.20;64.90;;;;;;4158507;28;20077;-75
2022/05/22 09:04:18;;;;;;;1.17;0.52;;;20.10;61.60;;;;;;4156792;28;20062;-75
2022/05/22 09:06:27;;;;;;;1.17;0.80;;;20.10;62.60;;;;;;4165839;28;20057;-75
2022/05/22 09:08:47;;;;;;;0.77;0.55;;;20.20;61.80;;;;;;4163178;28;20667;-75
2022/05/22 09:11:22;;;;;;;0.68;0.63;;;20.20;61.70;;;;;;4167975;28;20058;-74
2022/05/22 09:13:40;;;;;;;1.45;0.52;;;20.30;62.50;;;;;;4168391;28;20168;-73
2022/05/22 09:16:00;;;;;;;4.45;1.02;;;20.40;62.40;;;;;;4170892;28;20056;-74
2022/05/22 09:18:16;;;;;;;3.85;1.15;;;20.70;62.60;;;;;;4167839;28;20783;-74
2022/05/22 09:20:21;;;;;;;1.05;0.65;;;20.80;59.10;;;;;;4165392;28;20049;-76
2022/05/22 09:22:54;;;;;;;2.40;0.60;;;20.70;59.20;;;;;;4168890;28;20788;-76
2022/05/22 09:25:12;;;;;;;3.10;0.93;;;20.80;59.70;;;;;;4164316;28;20189;-77
2022/05/22 09:27:25;;;;;;;2.05;0.63;;;21.00;61.20;;;;;;4166628;28;20183;-77
2022/05/22 09:30:01;;;;;;;1.67;0.60;;;21.20;61.10;;;;;;4164916;28;20152;-77
2022/05/22 09:32:54;;;;;;;1.73;0.38;;;21.30;57.80;;;;;;4161985;28;20062;-77
2022/05/22 09:35:05;;;;;;;0.30;0.30;;;21.30;55.50;;;;;;4164102;28;20058;-77
2022/05/22 09:37:16;;;;;;;0.32;0.32;;;21.40;54.50;;;;;;4166185;28;21356;-76
2022/05/22 09:39:45;;;;;;;0.80;0.38;;;21.40;55.30;;;;;;4185371;28;20053;-77
2022/05/22 09:42:07;;;;;;;1.02;0.68;;;21.50;56.00;;;;;;4179374;28;20298;-79
2022/05/22 09:44:28;;;;;;;1.17;0.50;;;21.40;56.00;;;;;;4171262;28;20747;-77
2022/05/22 09:47:29;;;;;;;0.47;0.38;;;21.30;54.50;;;;;;4159766;28;20679;-77
2022/05/22 09:49:45;;;;;;;0.65;0.45;;;21.30;55.20;;;;;;4144264;28;20060;-78
2022/05/22 09:52:06;;;;;;;1.20;0.60;;;21.20;54.50;;;;;;4166579;28;20058;-79
2022/05/22 09:54:32;;;;;;;0.82;0.47;;;21.20;55.70;;;;;;4171013;28;20832;-74
2022/05/22 09:57:19;;;;;;;0.85;0.65;;;21.20;54.90;;;;;;4164925;28;20797;-76
2022/05/22 09:59:47;;;;;;;0.88;0.40;;;21.20;54.80;;;;;;4158548;28;20119;-77
2022/05/22 10:01:53;;;;;;;1.05;0.22;;;21.20;55.40;;;;;;4159012;28;20972;-74
2022/05/22 10:04:20;;;;;;;1.00;0.40;;;21.20;54.70;;;;;;4164421;28;20062;-74
2022/05/22 10:06:44;;;;;;;0.60;0.50;;;21.40;54.70;;;;;;4166591;28;20066;-76
2022/05/22 10:09:01;;;;;;;2.10;0.50;;;21.50;54.70;;;;;;4156924;28;20069;-74
2022/05/22 10:11:24;;;;;;;2.58;0.60;;;21.60;52.70;;;;;;4163597;28;20054;-75
2022/05/22 10:13:52;;;;;;;2.58;0.50;;;21.50;54.40;;;;;;4164240;28;20058;-74
2022/05/22 10:16:16;;;;;;;2.35;0.47;;;21.40;54.80;;;;;;4161518;28;20072;-74
2022/05/22 10:18:40;;;;;;;1.00;0.57;;;21.30;53.10;;;;;;4163864;28;20061;-74
2022/05/22 10:20:47;;;;;;;2.10;0.70;;;21.20;53.60;;;;;;4163094;28;20161;-75
2022/05/22 10:22:56;;;;;;;0.63;0.45;;;21.20;53.80;;;;;;4168668;28;20057;-76
2022/05/22 10:25:24;;;;;;;0.63;0.35;;;21.30;53.70;;;;;;4164885;28;20061;-75
2022/05/22 10:28:10;;;;;;;0.65;0.40;;;21.20;54.20;;;;;;4165800;28;20058;-76
2022/05/22 10:30:19;;;;;;;0.30;0.30;;;21.30;51.90;;;;;;4161883;28;20793;-76
2022/05/22 10:32:40;;;;;;;1.27;0.47;;;21.40;52.40;;;;;;4165140;28;20120;-75
2022/05/22 10:35:07;;;;;;;0.70;0.57;;;21.40;51.20;;;;;;4166300;28;20057;-75
2022/05/22 10:37:19;;;;;;;2.75;0.60;;;21.20;52.00;;;;;;4165859;28;20881;-75
2022/05/22 10:39:21;;;;;;;2.00;0.60;;;21.20;52.70;;;;;;4164911;28;20100;-75
2022/05/22 10:44:20;;;;;;;2.88;0.70;;;21.20;52.90;;;;;;4161793;28;20058;-76
2022/05/22 10:46:21;;;;;;;2.10;0.47;;;21.20;51.90;;;;;;4164839;28;20819;-75
2022/05/22 10:48:24;;;;;;;0.63;0.30;;;21.20;51.80;;;;;;4163493;28;20050;-74
2022/05/22 10:50:28;;;;;;;0.65;0.47;;;21.20;52.90;;;;;;4164331;28;20058;-75
2022/05/22 10:52:34;;;;;;;2.55;0.60;;;21.40;53.60;;;;;;4168794;28;20065;-75
2022/05/22 10:54:52;;;;;;;0.85;0.60;;;21.50;54.60;;;;;;4172893;28;20080;-75
2022/05/22 10:56:54;;;;;;;2.00;0.70;;;21.60;55.90;;;;;;4154658;28;20081;-75
2022/05/22 10:59:17;;;;;;;0.70;0.47;;;21.70;54.40;;;;;;4163600;28;20053;-75
2022/05/22 11:01:25;;;;;;;2.25;0.73;;;21.90;53.80;;;;;;4167075;28;20052;-75
2022/05/22 11:03:33;;;;;;;1.05;0.57;;;21.90;53.70;;;;;;4175067;28;20165;-74
2022/05/22 11:05:35;;;;;;;0.47;0.47;;;22.00;53.70;;;;;;4186430;22;20053;-75
2022/05/22 11:07:46;;;;;;;0.80;0.73;;;22.00;52.90;;;;;;4173064;28;20057;-75